Atlantida Azul — CSYG2 — position and weather

sailwx.info

Track history (hours):
 
Tides and Currents Weather Stations Pressure Air Temp Water Temp Dewpoint Dewpoint Depression Visibility Wind Speed Wind Dir Waves Ship Positions

Atlantida Azul

Last reported at 2017-Feb-24 21:31 UTC. Time now 2017-Feb-24 21:38 UTC.
Position N 37°56' W 008°51'.

Length 16 m.

Type: Pilot. MMSI: 263672880.

Date/timePositionNaut miles runAvg speedWind from/ knotsBaromVisibWave heightAir tempDewpointWater temp
2017-Feb-24 21:31N 37°56' W 008°51'0 0.0
2017-Feb-24 20:16N 37°56' W 008°51'0 0.6
2017-Feb-24 19:33N 37°56' W 008°51'0 0.1
2017-Feb-24 17:33N 37°56' W 008°51'2 1.7
2017-Feb-24 16:33N 37°57' W 008°52'1 0.2
2017-Feb-24 12:33N 37°56' W 008°52'1 0.6
2017-Feb-24 11:13N 37°57' W 008°52'0 0.0
2017-Feb-24 10:32N 37°57' W 008°52'1 0.9
2017-Feb-24 09:34N 37°56' W 008°51'2 1.6
2017-Feb-24 08:33N 37°57' W 008°53'2 1.1
2017-Feb-24 06:33N 37°56' W 008°51'2 2.2
2017-Feb-24 05:32N 37°57' W 008°53'2 0.4
2017-Feb-24 01:15N 37°56' W 008°51'0 0.0
2017-Feb-23 18:33N 37°56' W 008°51'0 0.2
2017-Feb-23 16:33N 37°56' W 008°51'1 0.9
2017-Feb-23 15:32N 37°56' W 008°51'2 1.9
2017-Feb-23 14:33N 37°57' W 008°52'2 0.8
2017-Feb-23 12:33N 37°56' W 008°52'1 0.6
2017-Feb-23 10:26N 37°57' W 008°52'1 1.4
2017-Feb-23 09:33N 37°57' W 008°53'1 0.8
2017-Feb-23 08:33N 37°56' W 008°53'1 1.0
2017-Feb-23 07:29N 37°57' W 008°52'0 0.5
2017-Feb-23 06:33N 37°57' W 008°52'0 0.5
2017-Feb-23 05:31N 37°57' W 008°52'2 2.1
2017-Feb-23 04:33N 37°55' W 008°53'2 0.3
2017-Feb-22 21:26N 37°56' W 008°51'0 0.5
2017-Feb-22 20:33N 37°56' W 008°51'0 0.3
2017-Feb-22 19:06N 37°56' W 008°51'0 0.0
2017-Feb-22 16:19N 37°56' W 008°51'0 0.0
2017-Feb-22 13:20N 37°56' W 008°51'0 0.1
2017-Feb-22 11:33N 37°56' W 008°51'0 0.0
2017-Feb-22 05:15N 37°56' W 008°51'0 0.6
2017-Feb-22 04:33N 37°56' W 008°51'0 0.4
2017-Feb-22 03:32N 37°56' W 008°51'0 0.0
2017-Feb-21 22:09N 37°56' W 008°51'1 2.2
2017-Feb-21 21:34N 37°55' W 008°51'1 1.0
2017-Feb-21 20:16N 37°56' W 008°51'2 2.6
2017-Feb-21 19:31N 37°57' W 008°53'2 2.4
2017-Feb-21 18:33N 37°56' W 008°51'0 0.2
2017-Feb-21 17:34N 37°56' W 008°51'2 0.2
2017-Feb-21 10:33N 37°56' W 008°53'1 0.7
2017-Feb-21 09:33N 37°57' W 008°53'2 2.0
2017-Feb-21 08:33N 37°55' W 008°52'1 1.2
2017-Feb-21 07:31N 37°56' W 008°51'1 0.2
2017-Feb-21 03:33N 37°57' W 008°52'1 0.9
2017-Feb-21 02:33N 37°57' W 008°53'1 0.9
2017-Feb-21 01:15N 37°57' W 008°52'2 0.3
2017-Feb-20 19:33N 37°55' W 008°51'1 0.3
2017-Feb-20 15:26N 37°56' W 008°51'2 2.1
2017-Feb-20 14:31N 37°57' W 008°53'2 1.1
2017-Feb-20 12:33N 37°56' W 008°51'0 0.2
2017-Feb-20 11:33N 37°56' W 008°51'0 0.0
2017-Feb-20 10:33N 37°56' W 008°51'0 0.0
2017-Feb-20 04:24N 37°56' W 008°51'0 0.0
2017-Feb-20 03:32N 37°56' W 008°51'2 0.9
2017-Feb-20 01:34N 37°57' W 008°53'0 0.0
2017-Feb-20 00:34N 37°57' W 008°53'2 0.4
2017-Feb-19 19:32N 37°56' W 008°51'3 2.7
2017-Feb-19 18:33N 37°54' W 008°51'3 3.1
2017-Feb-19 17:31N 37°57' W 008°52'1 1.0
2017-Feb-19 16:33N 37°56' W 008°51'0 0.0
2017-Feb-19 15:32N 37°56' W 008°51'2 2.1
2017-Feb-19 14:33N 37°55' W 008°53'2 0.3
2017-Feb-19 08:19N 37°56' W 008°51'0 0.6
2017-Feb-19 07:32N 37°56' W 008°51'1 0.9
2017-Feb-19 06:34N 37°56' W 008°52'1 0.2
2017-Feb-19 01:08N 37°56' W 008°51'0 0.7
2017-Feb-19 00:33N 37°56' W 008°51'1 0.9
2017-Feb-18 23:32N 37°56' W 008°52'1 1.3
2017-Feb-18 22:33N 37°57' W 008°53'1 1.3
2017-Feb-18 21:33N 37°56' W 008°52'2 1.5
2017-Feb-18 20:32N 37°57' W 008°53'2 2.3
2017-Feb-18 19:31N 37°56' W 008°51'0 0.0
2017-Feb-18 12:32N 37°56' W 008°51'1 1.1
2017-Feb-18 11:33N 37°56' W 008°52'1 1.3
2017-Feb-18 10:33N 37°56' W 008°51'0 0.1
2017-Feb-18 09:33N 37°56' W 008°51'0 0.1
2017-Feb-18 04:31N 37°56' W 008°51'4 1.8
2017-Feb-18 02:33N 37°53' W 008°52'4 0.4
2017-Feb-17 17:14N 37°56' W 008°51'1 1.6
2017-Feb-17 16:33N 37°57' W 008°52'1 0.2
2017-Feb-17 11:27N 37°56' W 008°51'0 0.2
2017-Feb-17 10:33N 37°56' W 008°51'1 0.8
2017-Feb-17 09:22N 37°57' W 008°52'0 0.0
2017-Feb-17 08:33N 37°57' W 008°52'4 3.6
2017-Feb-17 07:33N 37°53' W 008°51'2 2.2
2017-Feb-17 06:33N 37°55' W 008°51'1 0.6
2017-Feb-17 05:32N 37°56' W 008°51'2 0.5
2017-Feb-17 01:33N 37°54' W 008°51'2 0.6
2017-Feb-16 22:33N 37°56' W 008°50'3 2.4
2017-Feb-16 21:28N 37°57' W 008°53'1 0.4
2017-Feb-16 18:15N 37°57' W 008°52'1 1.6
2017-Feb-16 17:33N 37°57' W 008°53'1 1.0
2017-Feb-16 16:23N 37°57' W 008°52'0 0.0
2017-Feb-16 09:29N 37°57' W 008°52'1 0.6
2017-Feb-16 08:32N 37°57' W 008°52'1 0.2
2017-Feb-16 06:12N 37°57' W 008°52'0 0.0
2017-Feb-16 04:33N 37°57' W 008°52'2 1.5
2017-Feb-16 03:33N 37°56' W 008°51'1 0.7
2017-Feb-16 02:33N 37°55' W 008°51'2 2.1
2017-Feb-16 01:33N 37°57' W 008°53'1 1.0
2017-Feb-16 00:31N 37°57' W 008°52'1 1.3
2017-Feb-15 23:31N 37°56' W 008°51'2 1.1
2017-Feb-15 21:33N 37°57' W 008°53'0 0.4
2017-Feb-15 20:33N 37°57' W 008°53'1 0.7
2017-Feb-15 19:04N 37°57' W 008°52'1 2.4
2017-Feb-15 18:33N 37°57' W 008°53'0 0.1
2017-Feb-15 15:33N 37°57' W 008°53'1 0.9
2017-Feb-15 14:16N 37°57' W 008°52'1 0.6
2017-Feb-15 12:33N 37°56' W 008°52'1 0.6
2017-Feb-15 10:33N 37°55' W 008°51'3 2.6
2017-Feb-15 09:33N 37°57' W 008°53'1 0.6
2017-Feb-15 07:27N 37°57' W 008°52'0 0.0
2017-Feb-15 06:32N 37°57' W 008°52'1 1.2
2017-Feb-15 05:33N 37°56' W 008°52'1 0.8
2017-Feb-15 04:33N 37°56' W 008°51'0 0.1
2017-Feb-15 03:33N 37°56' W 008°51'0 0.0
2017-Feb-15 02:34N 37°56' W 008°51'0 0.2
2017-Feb-15 01:33N 37°56' W 008°51'1 0.4
2017-Feb-14 23:12N 37°57' W 008°52'1 1.8
2017-Feb-14 22:31N 37°57' W 008°53'  
Track history (hours):
 
Tides and Currents Weather Stations Pressure Air Temp Water Temp Dewpoint Dewpoint Depression Visibility Wind Speed Wind Dir Waves Ship Positions

Atlantida Azul

Last reported at 2017-Feb-24 21:31 UTC. Time now 2017-Feb-24 21:38 UTC.
Position N 37°56' W 008°51'.

Length 16 m.

Type: Pilot. MMSI: 263672880.

Date/timePositionNaut miles runAvg speedWind from/ knotsBaromVisibWave heightAir tempDewpointWater temp
2017-Feb-24 21:31N 37°56' W 008°51'0 0.0
2017-Feb-24 20:16N 37°56' W 008°51'0 0.6
2017-Feb-24 19:33N 37°56' W 008°51'0 0.1
2017-Feb-24 17:33N 37°56' W 008°51'2 1.7
2017-Feb-24 16:33N 37°57' W 008°52'1 0.2
2017-Feb-24 12:33N 37°56' W 008°52'1 0.6
2017-Feb-24 11:13N 37°57' W 008°52'0 0.0
2017-Feb-24 10:32N 37°57' W 008°52'1 0.9
2017-Feb-24 09:34N 37°56' W 008°51'2 1.6
2017-Feb-24 08:33N 37°57' W 008°53'2 1.1
2017-Feb-24 06:33N 37°56' W 008°51'2 2.2
2017-Feb-24 05:32N 37°57' W 008°53'2 0.4
2017-Feb-24 01:15N 37°56' W 008°51'0 0.0
2017-Feb-23 18:33N 37°56' W 008°51'0 0.2
2017-Feb-23 16:33N 37°56' W 008°51'1 0.9
2017-Feb-23 15:32N 37°56' W 008°51'2 1.9
2017-Feb-23 14:33N 37°57' W 008°52'2 0.8
2017-Feb-23 12:33N 37°56' W 008°52'1 0.6
2017-Feb-23 10:26N 37°57' W 008°52'1 1.4
2017-Feb-23 09:33N 37°57' W 008°53'1 0.8
2017-Feb-23 08:33N 37°56' W 008°53'1 1.0
2017-Feb-23 07:29N 37°57' W 008°52'0 0.5
2017-Feb-23 06:33N 37°57' W 008°52'0 0.5
2017-Feb-23 05:31N 37°57' W 008°52'2 2.1
2017-Feb-23 04:33N 37°55' W 008°53'2 0.3
2017-Feb-22 21:26N 37°56' W 008°51'0 0.5
2017-Feb-22 20:33N 37°56' W 008°51'0 0.3
2017-Feb-22 19:06N 37°56' W 008°51'0 0.0
2017-Feb-22 16:19N 37°56' W 008°51'0 0.0
2017-Feb-22 13:20N 37°56' W 008°51'0 0.1
2017-Feb-22 11:33N 37°56' W 008°51'0 0.0
2017-Feb-22 05:15N 37°56' W 008°51'0 0.6
2017-Feb-22 04:33N 37°56' W 008°51'0 0.4
2017-Feb-22 03:32N 37°56' W 008°51'0 0.0
2017-Feb-21 22:09N 37°56' W 008°51'1 2.2
2017-Feb-21 21:34N 37°55' W 008°51'1 1.0
2017-Feb-21 20:16N 37°56' W 008°51'2 2.6
2017-Feb-21 19:31N 37°57' W 008°53'2 2.4
2017-Feb-21 18:33N 37°56' W 008°51'0 0.2
2017-Feb-21 17:34N 37°56' W 008°51'2 0.2
2017-Feb-21 10:33N 37°56' W 008°53'1 0.7
2017-Feb-21 09:33N 37°57' W 008°53'2 2.0
2017-Feb-21 08:33N 37°55' W 008°52'1 1.2
2017-Feb-21 07:31N 37°56' W 008°51'1 0.2
2017-Feb-21 03:33N 37°57' W 008°52'1 0.9
2017-Feb-21 02:33N 37°57' W 008°53'1 0.9
2017-Feb-21 01:15N 37°57' W 008°52'2 0.3
2017-Feb-20 19:33N 37°55' W 008°51'1 0.3
2017-Feb-20 15:26N 37°56' W 008°51'2 2.1
2017-Feb-20 14:31N 37°57' W 008°53'2 1.1
2017-Feb-20 12:33N 37°56' W 008°51'0 0.2
2017-Feb-20 11:33N 37°56' W 008°51'0 0.0
2017-Feb-20 10:33N 37°56' W 008°51'0 0.0
2017-Feb-20 04:24N 37°56' W 008°51'0 0.0
2017-Feb-20 03:32N 37°56' W 008°51'2 0.9
2017-Feb-20 01:34N 37°57' W 008°53'0 0.0
2017-Feb-20 00:34N 37°57' W 008°53'2 0.4
2017-Feb-19 19:32N 37°56' W 008°51'3 2.7
2017-Feb-19 18:33N 37°54' W 008°51'3 3.1
2017-Feb-19 17:31N 37°57' W 008°52'1 1.0
2017-Feb-19 16:33N 37°56' W 008°51'0 0.0
2017-Feb-19 15:32N 37°56' W 008°51'2 2.1
2017-Feb-19 14:33N 37°55' W 008°53'2 0.3
2017-Feb-19 08:19N 37°56' W 008°51'0 0.6
2017-Feb-19 07:32N 37°56' W 008°51'1 0.9
2017-Feb-19 06:34N 37°56' W 008°52'1 0.2
2017-Feb-19 01:08N 37°56' W 008°51'0 0.7
2017-Feb-19 00:33N 37°56' W 008°51'1 0.9
2017-Feb-18 23:32N 37°56' W 008°52'1 1.3
2017-Feb-18 22:33N 37°57' W 008°53'1 1.3
2017-Feb-18 21:33N 37°56' W 008°52'2 1.5
2017-Feb-18 20:32N 37°57' W 008°53'2 2.3
2017-Feb-18 19:31N 37°56' W 008°51'0 0.0
2017-Feb-18 12:32N 37°56' W 008°51'1 1.1
2017-Feb-18 11:33N 37°56' W 008°52'1 1.3
2017-Feb-18 10:33N 37°56' W 008°51'0 0.1
2017-Feb-18 09:33N 37°56' W 008°51'0 0.1
2017-Feb-18 04:31N 37°56' W 008°51'4 1.8
2017-Feb-18 02:33N 37°53' W 008°52'4 0.4
2017-Feb-17 17:14N 37°56' W 008°51'1 1.6
2017-Feb-17 16:33N 37°57' W 008°52'1 0.2
2017-Feb-17 11:27N 37°56' W 008°51'0 0.2
2017-Feb-17 10:33N 37°56' W 008°51'1 0.8
2017-Feb-17 09:22N 37°57' W 008°52'0 0.0
2017-Feb-17 08:33N 37°57' W 008°52'4 3.6
2017-Feb-17 07:33N 37°53' W 008°51'2 2.2
2017-Feb-17 06:33N 37°55' W 008°51'1 0.6
2017-Feb-17 05:32N 37°56' W 008°51'2 0.5
2017-Feb-17 01:33N 37°54' W 008°51'2 0.6
2017-Feb-16 22:33N 37°56' W 008°50'3 2.4
2017-Feb-16 21:28N 37°57' W 008°53'1 0.4
2017-Feb-16 18:15N 37°57' W 008°52'1 1.6
2017-Feb-16 17:33N 37°57' W 008°53'1 1.0
2017-Feb-16 16:23N 37°57' W 008°52'0 0.0
2017-Feb-16 09:29N 37°57' W 008°52'1 0.6
2017-Feb-16 08:32N 37°57' W 008°52'1 0.2
2017-Feb-16 06:12N 37°57' W 008°52'0 0.0
2017-Feb-16 04:33N 37°57' W 008°52'2 1.5
2017-Feb-16 03:33N 37°56' W 008°51'1 0.7
2017-Feb-16 02:33N 37°55' W 008°51'2 2.1
2017-Feb-16 01:33N 37°57' W 008°53'1 1.0
2017-Feb-16 00:31N 37°57' W 008°52'1 1.3
2017-Feb-15 23:31N 37°56' W 008°51'2 1.1
2017-Feb-15 21:33N 37°57' W 008°53'0 0.4
2017-Feb-15 20:33N 37°57' W 008°53'1 0.7
2017-Feb-15 19:04N 37°57' W 008°52'1 2.4
2017-Feb-15 18:33N 37°57' W 008°53'0 0.1
2017-Feb-15 15:33N 37°57' W 008°53'1 0.9
2017-Feb-15 14:16N 37°57' W 008°52'1 0.6
2017-Feb-15 12:33N 37°56' W 008°52'1 0.6
2017-Feb-15 10:33N 37°55' W 008°51'3 2.6
2017-Feb-15 09:33N 37°57' W 008°53'1 0.6
2017-Feb-15 07:27N 37°57' W 008°52'0 0.0
2017-Feb-15 06:32N 37°57' W 008°52'1 1.2
2017-Feb-15 05:33N 37°56' W 008°52'1 0.8
2017-Feb-15 04:33N 37°56' W 008°51'0 0.1
2017-Feb-15 03:33N 37°56' W 008°51'0 0.0
2017-Feb-15 02:34N 37°56' W 008°51'0 0.2
2017-Feb-15 01:33N 37°56' W 008°51'1 0.4
2017-Feb-14 23:12N 37°57' W 008°52'1 1.8
2017-Feb-14 22:31N 37°57' W 008°53'  

Dump ship's entire track history